Time;durP1;ratioP1;P1;durP2;ratioP2;P2;SDS_P1;SDS_P2;PMS_P1;PMS_P2;Temp;Humidity;BMP_temperature;BMP_pressure;BME280_temperature;BME280_humidity;BME280_pressure;Samples;Min_cycle;Max_cycle;Signal;HPM_P1;HPM_P2
2022/09/16 00:00:23;;;;;;;8.90;3.22;;;24.40;82.80;;;;;;6341111;22;20003;-77
2022/09/16 00:02:53;;;;;;;7.97;2.80;;;24.40;82.90;;;;;;6340887;22;20016;-79
2022/09/16 00:05:19;;;;;;;9.80;3.60;;;24.40;82.90;;;;;;6341299;22;20014;-79
2022/09/16 00:07:45;;;;;;;7.10;2.67;;;24.40;83.00;;;;;;6340880;22;20006;-78
2022/09/16 00:10:12;;;;;;;7.82;2.60;;;24.40;83.00;;;;;;6341001;22;20000;-77
2022/09/16 00:12:38;;;;;;;7.53;2.90;;;24.40;82.90;;;;;;6340528;22;20002;-76
2022/09/16 00:15:04;;;;;;;6.95;3.00;;;24.40;82.90;;;;;;6341490;22;19994;-76
2022/09/16 00:17:30;;;;;;;5.22;2.78;;;24.40;82.80;;;;;;6341212;22;20251;-76
2022/09/16 00:19:56;;;;;;;9.00;2.72;;;24.40;82.80;;;;;;6341085;22;20060;-76
2022/09/16 00:22:23;;;;;;;8.23;2.97;;;24.40;82.80;;;;;;6341131;22;20002;-76
2022/09/16 00:24:49;;;;;;;6.63;2.72;;;24.40;83.00;;;;;;6341184;22;20328;-76
2022/09/16 00:27:15;;;;;;;6.68;2.60;;;24.30;82.90;;;;;;6340522;22;19999;-76
2022/09/16 00:29:40;;;;;;;7.57;2.42;;;24.30;82.90;;;;;;6341632;22;20005;-76
2022/09/16 00:32:06;;;;;;;9.95;3.10;;;24.30;83.00;;;;;;6312519;22;20025;-78
2022/09/16 00:34:32;;;;;;;8.30;2.35;;;24.20;83.20;;;;;;6341077;22;19994;-76
2022/09/16 00:36:58;;;;;;;6.85;2.50;;;24.20;83.30;;;;;;6341000;22;20547;-76
2022/09/16 00:39:24;;;;;;;5.82;2.58;;;24.10;83.40;;;;;;6313628;22;20475;-76
2022/09/16 00:41:49;;;;;;;6.97;2.58;;;24.10;83.80;;;;;;6340609;22;19999;-76
2022/09/16 00:44:52;;;;;;;5.38;2.00;;;24.10;83.70;;;;;;6339913;22;20022;-76
2022/09/16 00:47:22;;;;;;;7.03;2.13;;;24.10;83.80;;;;;;6339161;22;20006;-76
2022/09/16 00:49:48;;;;;;;6.88;2.70;;;24.10;83.80;;;;;;6340288;22;20002;-75
2022/09/16 00:52:15;;;;;;;9.55;2.42;;;24.10;84.00;;;;;;6339199;22;19999;-77
2022/09/16 00:54:42;;;;;;;5.80;2.50;;;24.10;83.80;;;;;;6339349;22;20464;-77
2022/09/16 00:57:11;;;;;;;9.05;2.67;;;24.10;83.80;;;;;;6339232;22;20014;-77
2022/09/16 00:59:46;;;;;;;8.93;2.85;;;24.10;84.00;;;;;;6339458;22;20022;-77
2022/09/16 01:02:16;;;;;;;8.85;3.15;;;24.00;84.30;;;;;;6337221;22;20026;-76
2022/09/16 01:05:05;;;;;;;7.68;2.63;;;23.90;84.90;;;;;;6339627;22;20077;-74
2022/09/16 01:07:39;;;;;;;10.27;3.78;;;23.60;86.10;;;;;;6339055;22;20014;-74
2022/09/16 01:10:05;;;;;;;8.98;3.90;;;23.30;87.30;;;;;;6338277;22;19999;-74
2022/09/16 01:12:33;;;;;;;6.88;3.97;;;23.20;88.00;;;;;;6338679;22;20002;-74
2022/09/16 01:15:00;;;;;;;8.32;4.53;;;23.10;87.90;;;;;;6338899;22;20082;-74
2022/09/16 01:17:49;;;;;;;10.20;4.00;;;23.00;88.80;;;;;;6339039;22;20048;-74
2022/09/16 01:20:23;;;;;;;8.77;3.75;;;23.00;89.10;;;;;;6288627;22;20349;-75
2022/09/16 01:23:10;;;;;;;6.80;3.13;;;22.80;89.60;;;;;;6339052;22;20055;-74
2022/09/16 01:26:13;;;;;;;10.65;2.85;;;22.80;89.80;;;;;;6311001;22;20056;-74
2022/09/16 01:28:42;;;;;;;8.00;3.42;;;22.80;90.20;;;;;;6338625;22;20047;-74
2022/09/16 01:31:20;;;;;;;7.35;3.00;;;22.70;90.30;;;;;;6337812;22;20044;-74
2022/09/16 01:34:04;;;;;;;8.63;2.90;;;22.70;90.40;;;;;;6337294;22;20022;-74
2022/09/16 01:37:22;;;;;;;7.53;2.45;;;22.70;90.30;;;;;;6311064;22;20038;-78
2022/09/16 01:39:53;;;;;;;7.05;2.80;;;22.80;89.80;;;;;;6269191;22;20367;-78
2022/09/16 01:42:59;;;;;;;7.63;3.03;;;23.00;89.30;;;;;;6339004;22;20003;-78
2022/09/16 01:45:24;;;;;;;7.47;3.25;;;23.00;89.90;;;;;;6337869;22;20077;-78
2022/09/16 01:48:24;;;;;;;5.22;2.30;;;22.80;90.20;;;;;;6338715;22;20030;-78
2022/09/16 01:51:21;;;;;;;10.00;2.60;;;22.80;90.10;;;;;;6338576;22;20003;-75
2022/09/16 01:53:59;;;;;;;6.45;1.75;;;22.80;90.20;;;;;;6338858;22;20002;-76
2022/09/16 01:56:44;;;;;;;6.18;2.17;;;22.90;89.50;;;;;;6338531;22;20009;-76
2022/09/16 01:59:14;;;;;;;7.05;2.53;;;23.00;89.70;;;;;;6338320;22;20070;-77
2022/09/16 02:02:02;;;;;;;6.10;2.38;;;22.80;90.20;;;;;;6338301;22;20428;-77
2022/09/16 02:04:33;;;;;;;5.15;2.05;;;22.90;89.60;;;;;;6310157;22;20424;-77
2022/09/16 02:07:03;;;;;;;5.88;2.20;;;23.00;89.50;;;;;;6337406;22;20471;-76
2022/09/16 02:09:33;;;;;;;;;;;22.90;90.00;;;;;;6338464;22;20452;-77
2022/09/16 02:12:05;;;;;;;7.18;1.60;;;23.00;89.50;;;;;;6339126;22;19903;-76
2022/09/16 02:14:38;;;;;;;4.63;1.60;;;23.10;89.20;;;;;;6337855;22;20420;-76
2022/09/16 02:17:08;;;;;;;8.20;2.05;;;23.20;89.10;;;;;;6309915;22;20089;-77
2022/09/16 02:20:05;;;;;;;6.40;1.65;;;23.30;88.80;;;;;;6336883;22;20073;-76
2022/09/16 02:22:37;;;;;;;5.30;1.90;;;23.40;88.50;;;;;;6338680;22;20351;-76
2022/09/16 02:25:05;;;;;;;6.43;2.25;;;23.40;88.20;;;;;;6336964;22;20083;-77
2022/09/16 02:27:33;;;;;;;9.95;1.80;;;23.50;88.10;;;;;;6338064;22;20006;-77
2022/09/16 02:30:09;;;;;;;6.25;2.70;;;23.50;88.00;;;;;;6309637;22;20500;-76
2022/09/16 02:32:40;;;;;;;4.50;1.77;;;23.60;87.90;;;;;;6338140;22;20030;-75
2022/09/16 02:35:09;;;;;;;5.78;2.40;;;23.60;87.80;;;;;;6337650;22;20050;-76
2022/09/16 02:37:52;;;;;;;11.65;2.90;;;23.50;88.00;;;;;;6338285;22;19999;-76
2022/09/16 02:40:24;;;;;;;7.22;2.50;;;23.20;88.90;;;;;;6337387;22;20045;-76
2022/09/16 02:42:50;;;;;;;8.23;2.47;;;23.00;89.80;;;;;;6337488;22;19999;-77
2022/09/16 02:45:16;;;;;;;8.55;2.55;;;23.00;89.50;;;;;;6337690;22;19999;-77
2022/09/16 02:48:02;;;;;;;4.00;1.67;;;23.00;89.80;;;;;;6338443;22;20002;-77
2022/09/16 02:50:58;;;;;;;5.10;2.08;;;23.00;89.50;;;;;;6337711;22;20464;-77
2022/09/16 02:53:57;;;;;;;10.32;2.85;;;23.00;89.50;;;;;;6309893;22;20003;-74
2022/09/16 02:56:35;;;;;;;12.02;2.83;;;23.00;89.80;;;;;;6337120;22;20321;-74
2022/09/16 02:59:03;;;;;;;11.25;2.50;;;22.80;90.10;;;;;;6336802;22;20009;-74
2022/09/16 03:01:32;;;;;;;6.20;2.30;;;22.80;90.20;;;;;;6337852;22;20435;-74
2022/09/16 03:03:58;;;;;;;9.40;2.03;;;22.80;90.10;;;;;;6337124;22;20003;-74
2022/09/16 03:06:25;;;;;;;8.13;2.13;;;22.80;90.20;;;;;;6309684;22;20071;-74
2022/09/16 03:08:54;;;;;;;4.57;1.83;;;22.90;90.00;;;;;;6309926;22;19999;-74
2022/09/16 03:11:38;;;;;;;6.65;2.40;;;23.00;89.90;;;;;;6337715;22;19999;-79
2022/09/16 03:14:41;;;;;;;9.63;2.55;;;23.10;89.60;;;;;;6336705;22;20074;-79
2022/09/16 03:17:14;;;;;;;14.55;2.70;;;23.20;89.40;;;;;;6337379;22;20007;-79
2022/09/16 03:19:49;;;;;;;5.68;2.33;;;23.20;89.10;;;;;;6337276;22;20006;-80
2022/09/16 03:22:36;;;;;;;5.25;2.50;;;23.10;89.30;;;;;;6338017;22;20003;-78
2022/09/16 03:25:32;;;;;;;11.40;2.08;;;23.10;89.70;;;;;;6336595;22;20070;-78
2022/09/16 03:28:40;;;;;;;9.65;2.55;;;23.10;89.60;;;;;;6310074;22;20379;-78
2022/09/16 03:31:11;;;;;;;12.25;3.20;;;23.20;89.20;;;;;;6294248;22;20413;-78
2022/09/16 03:33:46;;;;;;;9.80;2.75;;;23.20;89.50;;;;;;6337363;22;19995;-78
2022/09/16 03:36:15;;;;;;;7.57;2.70;;;23.20;89.40;;;;;;6337765;22;20002;-79
2022/09/16 03:38:41;;;;;;;7.90;2.27;;;23.10;89.10;;;;;;6308964;22;20345;-79
2022/09/16 03:41:09;;;;;;;7.28;3.10;;;23.20;89.10;;;;;;6337770;22;20003;-80
2022/09/16 03:43:35;;;;;;;7.47;3.35;;;23.20;89.00;;;;;;6337277;22;20002;-80
2022/09/16 03:46:01;;;;;;;9.63;2.67;;;23.30;88.90;;;;;;6338106;22;20438;-79
2022/09/16 03:48:27;;;;;;;7.20;2.47;;;23.30;88.80;;;;;;6337434;22;19999;-80
2022/09/16 03:50:52;;;;;;;6.88;2.83;;;23.30;88.70;;;;;;6336576;22;20413;-79
2022/09/16 03:53:18;;;;;;;7.70;2.67;;;23.30;88.60;;;;;;6337457;22;20002;-79
2022/09/16 03:55:44;;;;;;;12.98;3.58;;;23.30;88.60;;;;;;6339015;22;20064;-74
2022/09/16 03:58:15;;;;;;;6.88;2.60;;;23.20;88.80;;;;;;6309700;22;20314;-74
2022/09/16 04:00:41;;;;;;;8.48;2.55;;;23.20;88.60;;;;;;6309833;22;20382;-74
2022/09/16 04:03:07;;;;;;;14.13;3.45;;;23.20;88.70;;;;;;6338416;22;20007;-74
2022/09/16 04:05:32;;;;;;;7.95;2.90;;;23.20;88.80;;;;;;6337439;22;20019;-75
2022/09/16 04:07:58;;;;;;;9.55;3.65;;;23.20;88.60;;;;;;6337656;22;20405;-75
2022/09/16 04:10:24;;;;;;;8.80;3.13;;;23.10;89.00;;;;;;6309488;22;20030;-76
2022/09/16 04:12:50;;;;;;;11.55;2.80;;;23.10;88.80;;;;;;6337823;22;19999;-76
2022/09/16 04:15:16;;;;;;;9.88;2.80;;;23.10;88.70;;;;;;6337493;22;20022;-75
2022/09/16 04:17:41;;;;;;;6.00;2.55;;;23.10;88.60;;;;;;6337842;22;20423;-75
2022/09/16 04:20:07;;;;;;;11.30;3.20;;;23.20;88.60;;;;;;6338513;22;20413;-75
2022/09/16 04:22:33;;;;;;;7.47;2.85;;;23.20;88.50;;;;;;6339502;22;20002;-75
2022/09/16 04:24:59;;;;;;;8.93;3.13;;;23.20;88.50;;;;;;6311212;22;19995;-75
2022/09/16 04:27:25;;;;;;;5.38;2.28;;;23.20;88.40;;;;;;6339404;22;20033;-75
2022/09/16 04:29:51;;;;;;;8.27;2.40;;;23.10;88.40;;;;;;6339523;22;20411;-75
2022/09/16 04:32:16;;;;;;;5.65;2.53;;;23.10;88.50;;;;;;6339227;22;20002;-75
2022/09/16 04:34:42;;;;;;;7.38;2.72;;;23.00;88.50;;;;;;6338966;22;20012;-74
2022/09/16 04:37:08;;;;;;;7.40;2.53;;;23.00;88.50;;;;;;6338695;22;19998;-75
2022/09/16 04:39:33;;;;;;;6.07;2.38;;;23.00;88.50;;;;;;6311117;22;20089;-75
2022/09/16 04:42:04;;;;;;;9.98;2.95;;;23.10;88.40;;;;;;6339902;22;20344;-75
2022/09/16 04:44:30;;;;;;;6.45;2.50;;;23.20;88.30;;;;;;6310431;22;20347;-75
2022/09/16 04:46:56;;;;;;;6.57;2.65;;;23.20;88.20;;;;;;6337932;22;20011;-81
2022/09/16 04:49:21;;;;;;;6.45;2.78;;;23.20;88.00;;;;;;6338979;22;20034;-81
2022/09/16 04:51:47;;;;;;;4.05;2.15;;;23.20;88.00;;;;;;6311421;22;20006;-80
2022/09/16 04:54:16;;;;;;;6.07;2.10;;;23.20;87.90;;;;;;6311612;22;20485;-80
2022/09/16 04:56:42;;;;;;;5.57;2.15;;;23.20;87.90;;;;;;6337978;22;20003;-80
2022/09/16 04:59:09;;;;;;;4.85;1.85;;;23.20;87.90;;;;;;6311202;22;20393;-81
2022/09/16 05:01:39;;;;;;;8.05;2.53;;;23.10;87.80;;;;;;6337770;22;20032;-81
2022/09/16 05:04:06;;;;;;;4.90;2.63;;;23.20;87.80;;;;;;6338251;22;20421;-81
2022/09/16 05:06:35;;;;;;;7.93;2.72;;;23.20;87.80;;;;;;6310260;22;20022;-80
2022/09/16 05:09:02;;;;;;;6.07;2.85;;;23.10;88.20;;;;;;6338432;22;20431;-80
2022/09/16 05:11:32;;;;;;;16.02;3.35;;;23.10;87.70;;;;;;6338113;22;20051;-79
2022/09/16 05:13:59;;;;;;;;;;;23.00;87.90;;;;;;6339884;22;20329;-80
2022/09/16 05:16:25;;;;;;;8.43;2.17;;;22.90;88.30;;;;;;6338542;22;19898;-81
2022/09/16 05:18:54;;;;;;;7.47;2.10;;;22.80;88.20;;;;;;6338523;22;20298;-80
2022/09/16 05:21:22;;;;;;;5.47;2.20;;;22.80;88.50;;;;;;6338864;22;20010;-80
2022/09/16 05:23:52;;;;;;;4.95;1.75;;;22.80;88.40;;;;;;6311310;22;20010;-80
2022/09/16 05:26:21;;;;;;;5.75;1.90;;;22.90;88.50;;;;;;6336397;22;20058;-80
2022/09/16 05:28:49;;;;;;;8.20;1.98;;;22.90;88.30;;;;;;6338013;22;20022;-80
2022/09/16 05:31:19;;;;;;;7.28;2.15;;;23.00;88.20;;;;;;6337689;22;19995;-80
2022/09/16 05:33:46;;;;;;;;;;;22.90;88.10;;;;;;6339299;22;19999;-76
2022/09/16 05:36:16;;;;;;;7.80;2.05;;;22.90;88.20;;;;;;6311855;22;20182;-76
2022/09/16 05:38:44;;;;;;;7.43;2.13;;;22.90;88.10;;;;;;6339155;22;20010;-76
2022/09/16 05:41:10;;;;;;;9.65;2.78;;;22.90;88.10;;;;;;6338247;22;20002;-76
2022/09/16 05:43:36;;;;;;;6.25;2.78;;;22.70;88.10;;;;;;6311204;22;20310;-76
2022/09/16 05:46:03;;;;;;;8.43;2.92;;;22.50;89.00;;;;;;6338742;22;20006;-75
2022/09/16 05:48:29;;;;;;;9.82;2.30;;;22.20;89.70;;;;;;6337743;22;20394;-75
2022/09/16 05:51:04;;;;;;;4.93;1.67;;;22.20;90.00;;;;;;6337607;22;19995;-75
2022/09/16 05:53:31;;;;;;;4.35;2.22;;;22.00;90.30;;;;;;6337249;22;20324;-75
2022/09/16 05:55:59;;;;;;;5.35;1.75;;;21.90;90.60;;;;;;6337494;22;19999;-74
2022/09/16 05:58:26;;;;;;;5.22;1.80;;;22.00;90.60;;;;;;6338757;22;20443;-75
2022/09/16 06:01:01;;;;;;;9.75;1.88;;;22.10;90.40;;;;;;6338738;22;20048;-73
2022/09/16 06:03:28;;;;;;;4.97;1.70;;;22.00;90.60;;;;;;6338271;22;20038;-74
2022/09/16 06:06:06;;;;;;;2.05;1.10;;;22.00;90.60;;;;;;6338117;22;20007;-74
2022/09/16 06:08:34;;;;;;;4.82;1.13;;;22.20;90.40;;;;;;6338465;22;19999;-74
2022/09/16 06:11:04;;;;;;;8.85;1.75;;;22.30;90.20;;;;;;6311251;22;20009;-73
2022/09/16 06:13:30;;;;;;;4.25;1.30;;;22.50;90.00;;;;;;6338953;22;20003;-75
2022/09/16 06:15:56;;;;;;;3.35;1.25;;;22.60;89.50;;;;;;6337968;22;20324;-79
2022/09/16 06:18:29;;;;;;;2.08;1.30;;;22.80;89.00;;;;;;6337563;22;20006;-74
2022/09/16 06:20:56;;;;;;;3.05;1.27;;;22.80;88.50;;;;;;6339085;22;20003;-74
2022/09/16 06:23:22;;;;;;;3.53;1.30;;;22.80;88.30;;;;;;6310643;22;20010;-74
2022/09/16 06:25:48;;;;;;;4.40;1.38;;;23.00;88.20;;;;;;6338610;22;19999;-74
2022/09/16 06:28:14;;;;;;;2.08;1.10;;;23.00;87.90;;;;;;6310632;22;19998;-74
2022/09/16 06:30:40;;;;;;;2.42;1.40;;;23.10;87.70;;;;;;6338524;22;19999;-74
2022/09/16 06:33:08;;;;;;;3.97;1.40;;;23.10;87.50;;;;;;6338858;22;20005;-77
2022/09/16 06:35:34;;;;;;;3.92;1.20;;;23.20;87.30;;;;;;6310997;22;20048;-75
2022/09/16 06:38:00;;;;;;;2.33;1.10;;;23.20;87.00;;;;;;6338075;22;20014;-75
2022/09/16 06:40:26;;;;;;;3.72;1.15;;;23.30;86.80;;;;;;6338990;22;19999;-80
2022/09/16 06:42:53;;;;;;;6.55;1.83;;;23.40;86.60;;;;;;6338282;22;20063;-80
2022/09/16 06:45:21;;;;;;;4.13;1.70;;;23.40;86.40;;;;;;6338644;22;19995;-80
2022/09/16 06:47:47;;;;;;;2.67;1.10;;;23.50;86.30;;;;;;6311000;22;20003;-81
2022/09/16 06:50:13;;;;;;;4.28;1.50;;;23.50;86.00;;;;;;6338044;22;20034;-80
2022/09/16 06:52:40;;;;;;;2.22;1.05;;;23.60;85.80;;;;;;6338310;22;19999;-81
2022/09/16 06:55:06;;;;;;;3.45;1.25;;;23.60;85.30;;;;;;6338753;22;20062;-80
2022/09/16 06:57:32;;;;;;;3.72;1.20;;;23.70;85.10;;;;;;6338567;22;20023;-81
2022/09/16 06:59:57;;;;;;;2.63;1.02;;;23.70;85.00;;;;;;6338911;22;20003;-81
2022/09/16 07:02:23;;;;;;;2.78;1.25;;;23.80;84.90;;;;;;6337691;22;20007;-81
2022/09/16 07:04:49;;;;;;;3.55;1.45;;;23.80;84.70;;;;;;6338754;22;20003;-75
2022/09/16 07:07:15;;;;;;;2.50;1.13;;;23.90;84.70;;;;;;6338503;22;20007;-75
2022/09/16 07:09:41;;;;;;;3.05;1.42;;;23.90;84.50;;;;;;6338551;22;20413;-75
2022/09/16 07:12:07;;;;;;;4.70;1.40;;;23.90;84.40;;;;;;6338974;22;20048;-76
2022/09/16 07:14:33;;;;;;;3.45;1.25;;;24.00;84.30;;;;;;6338375;22;20022;-75
2022/09/16 07:17:00;;;;;;;4.70;1.77;;;24.00;84.00;;;;;;6337663;22;20408;-77
2022/09/16 07:19:26;;;;;;;6.45;1.80;;;24.00;84.30;;;;;;6338251;22;20003;-75
2022/09/16 07:21:52;;;;;;;4.25;1.50;;;24.00;83.70;;;;;;6338342;22;20006;-75
2022/09/16 07:24:18;;;;;;;4.78;1.30;;;23.80;84.40;;;;;;6310454;22;20065;-75
2022/09/16 07:26:44;;;;;;;5.45;1.10;;;23.80;84.90;;;;;;6337683;22;20009;-74
2022/09/16 07:29:13;;;;;;;2.60;1.10;;;23.80;84.70;;;;;;6337540;22;20002;-75
2022/09/16 07:31:39;;;;;;;1.52;0.80;;;23.80;84.90;;;;;;6338335;22;19995;-75
2022/09/16 07:34:08;;;;;;;5.65;1.83;;;23.80;84.90;;;;;;6337893;22;20482;-75
2022/09/16 07:36:37;;;;;;;4.45;1.15;;;23.80;85.20;;;;;;6337562;22;20409;-75
2022/09/16 07:39:04;;;;;;;6.43;1.02;;;23.70;85.30;;;;;;6338064;22;20344;-75
2022/09/16 07:41:33;;;;;;;2.85;1.20;;;23.80;85.30;;;;;;6338835;22;20007;-80
2022/09/16 07:44:00;;;;;;;3.08;0.88;;;23.70;85.30;;;;;;6310114;22;20002;-80
2022/09/16 07:46:28;;;;;;;2.83;1.10;;;23.70;85.40;;;;;;6338551;22;20085;-80
2022/09/16 07:48:54;;;;;;;7.10;1.23;;;23.80;85.20;;;;;;6337777;22;20022;-80
2022/09/16 07:51:23;;;;;;;5.80;0.95;;;24.00;85.10;;;;;;6337998;22;20007;-80
2022/09/16 07:54:01;;;;;;;4.28;0.85;;;24.20;84.90;;;;;;6338442;22;19999;-80
2022/09/16 07:56:29;;;;;;;6.40;1.48;;;24.30;84.60;;;;;;6340536;22;20006;-80
2022/09/16 07:58:56;;;;;;;4.75;1.40;;;24.30;84.30;;;;;;6340499;22;20009;-80
2022/09/16 08:01:22;;;;;;;4.10;1.20;;;24.30;84.30;;;;;;6340400;22;20006;-80
2022/09/16 08:03:48;;;;;;;4.47;1.77;;;24.40;84.10;;;;;;6311170;22;20013;-80
2022/09/16 08:06:20;;;;;;;3.95;1.20;;;24.30;83.60;;;;;;6339809;22;20059;-81
2022/09/16 08:08:46;;;;;;;5.75;1.67;;;24.40;84.00;;;;;;6339813;22;20002;-80
2022/09/16 08:11:13;;;;;;;3.67;0.95;;;24.50;84.20;;;;;;6300169;22;20010;-80
2022/09/16 08:13:40;;;;;;;8.05;1.35;;;24.70;84.00;;;;;;6340200;22;20003;-80
2022/09/16 08:16:16;;;;;;;3.53;1.00;;;24.80;83.90;;;;;;6339400;22;20003;-80
2022/09/16 08:18:43;;;;;;;4.55;1.30;;;24.90;83.60;;;;;;6312574;22;20053;-80
2022/09/16 08:21:11;;;;;;;2.83;0.95;;;25.10;83.40;;;;;;6340456;22;20072;-80
2022/09/16 08:23:38;;;;;;;3.05;1.45;;;25.20;83.10;;;;;;6340145;22;20007;-80
2022/09/16 08:26:07;;;;;;;3.90;1.20;;;25.40;81.90;;;;;;6339431;22;19999;-80
2022/09/16 08:28:33;;;;;;;4.30;1.23;;;25.40;81.90;;;;;;6340213;22;20401;-80
2022/09/16 08:31:00;;;;;;;7.82;1.50;;;25.50;81.50;;;;;;6340067;22;19999;-80
2022/09/16 08:33:26;;;;;;;3.33;1.23;;;25.60;81.90;;;;;;6340042;22;19995;-80
2022/09/16 08:36:00;;;;;;;3.67;1.33;;;25.70;81.80;;;;;;6339775;22;20010;-80
2022/09/16 08:38:26;;;;;;;4.78;1.33;;;25.60;79.70;;;;;;6340188;22;19999;-80
2022/09/16 08:41:00;;;;;;;4.55;1.33;;;25.60;80.80;;;;;;6339483;22;20355;-80
2022/09/16 08:43:48;;;;;;;2.25;0.90;;;25.50;79.60;;;;;;6339755;22;19998;-80
2022/09/16 08:46:44;;;;;;;4.30;1.30;;;25.50;80.50;;;;;;6339281;22;20009;-80
2022/09/16 08:49:29;;;;;;;4.40;1.30;;;25.50;80.50;;;;;;6339017;22;20401;-80
2022/09/16 08:51:58;;;;;;;2.78;1.00;;;25.70;80.40;;;;;;6339886;22;20003;-81
2022/09/16 08:54:44;;;;;;;4.60;1.30;;;25.80;80.50;;;;;;6339934;22;20096;-80
2022/09/16 08:57:21;;;;;;;3.42;1.08;;;25.90;80.30;;;;;;6339705;22;20019;-80
2022/09/16 08:59:53;;;;;;;5.38;1.27;;;26.10;80.10;;;;;;6338555;22;20006;-80
2022/09/16 09:02:37;;;;;;;6.40;1.70;;;26.20;79.80;;;;;;6337938;22;20392;-81
2022/09/16 09:05:24;;;;;;;9.25;1.65;;;26.30;78.70;;;;;;6337876;22;20002;-76
2022/09/16 09:07:56;;;;;;;5.50;1.60;;;26.40;78.90;;;;;;6310838;22;20039;-76
2022/09/16 09:10:34;;;;;;;7.97;1.50;;;26.50;78.80;;;;;;6311047;22;20427;-79
2022/09/16 09:13:37;;;;;;;6.78;1.15;;;26.60;78.80;;;;;;6338798;22;20007;-76
2022/09/16 09:16:35;;;;;;;6.68;1.75;;;26.80;78.60;;;;;;6311657;22;19999;-81
2022/09/16 09:19:35;;;;;;;3.60;1.25;;;27.00;77.80;;;;;;6338303;22;20322;-81
2022/09/16 09:22:37;;;;;;;4.78;1.00;;;27.10;77.30;;;;;;6338485;22;20002;-81
2022/09/16 09:25:28;;;;;;;4.03;1.60;;;27.10;77.20;;;;;;6338604;22;19999;-81
2022/09/16 09:28:20;;;;;;;6.47;1.35;;;27.20;77.00;;;;;;6339318;22;20492;-81
2022/09/16 09:31:17;;;;;;;3.22;1.33;;;27.30;76.80;;;;;;6339074;22;20026;-80
2022/09/16 09:33:52;;;;;;;4.40;1.38;;;27.30;76.40;;;;;;6276824;22;20027;-80
2022/09/16 09:36:44;;;;;;;4.82;1.92;;;27.40;76.30;;;;;;6311233;22;20488;-81
2022/09/16 09:39:15;;;;;;;8.48;2.00;;;27.40;76.50;;;;;;6339549;22;20424;-80
2022/09/16 09:41:53;;;;;;;9.63;1.95;;;27.60;76.80;;;;;;6311643;22;20409;-80
2022/09/16 09:44:32;;;;;;;5.03;1.70;;;27.70;76.50;;;;;;6339407;22;20052;-80
2022/09/16 09:47:03;;;;;;;5.63;2.10;;;27.80;76.00;;;;;;6338925;22;20003;-81
2022/09/16 09:49:33;;;;;;;5.07;1.55;;;27.80;75.30;;;;;;6338562;22;20005;-80
2022/09/16 09:52:16;;;;;;;5.30;1.30;;;27.90;75.40;;;;;;6339598;22;20421;-80
2022/09/16 09:54:47;;;;;;;4.00;1.55;;;28.10;75.30;;;;;;6339349;22;20006;-81
2022/09/16 09:57:36;;;;;;;3.67;1.33;;;28.20;74.50;;;;;;6339514;22;20128;-81
2022/09/16 10:00:31;;;;;;;2.17;0.98;;;28.20;74.20;;;;;;6338805;22;20009;-83
2022/09/16 10:03:05;;;;;;;6.93;2.28;;;28.30;73.80;;;;;;6331660;22;20014;-81
2022/09/16 10:05:31;;;;;;;2.90;1.50;;;28.40;74.00;;;;;;6338574;22;20019;-80
2022/09/16 10:08:01;;;;;;;3.55;1.38;;;28.50;73.80;;;;;;6339275;22;20090;-81
2022/09/16 10:10:32;;;;;;;6.97;2.08;;;28.60;73.80;;;;;;6338043;22;20003;-81
2022/09/16 10:13:11;;;;;;;5.55;1.50;;;28.80;73.80;;;;;;6337495;22;19999;-81
2022/09/16 10:15:38;;;;;;;4.30;1.33;;;28.90;71.80;;;;;;6338112;22;20044;-81
2022/09/16 10:18:31;;;;;;;3.63;1.25;;;28.90;72.10;;;;;;6338387;22;20290;-81
2022/09/16 10:21:09;;;;;;;4.13;0.95;;;28.90;71.50;;;;;;6331964;22;20048;-81
2022/09/16 10:23:37;;;;;;;3.20;0.98;;;29.10;72.20;;;;;;6338445;22;19999;-81
2022/09/16 10:26:18;;;;;;;5.88;1.63;;;29.20;72.00;;;;;;6338807;22;20055;-81
2022/09/16 10:29:18;;;;;;;4.32;1.20;;;29.40;71.30;;;;;;6339162;22;20022;-76
2022/09/16 10:31:44;;;;;;;5.20;1.40;;;29.50;70.50;;;;;;6310726;22;20007;-76
2022/09/16 10:34:26;;;;;;;5.60;1.25;;;29.70;71.00;;;;;;6311361;22;20310;-76
2022/09/16 10:37:04;;;;;;;7.15;1.30;;;29.80;70.30;;;;;;6336032;22;20037;-76
2022/09/16 10:39:31;;;;;;;8.05;1.95;;;30.00;70.20;;;;;;6336925;22;20002;-77
2022/09/16 10:41:57;;;;;;;5.82;1.52;;;30.10;69.80;;;;;;6338327;22;19999;-76
2022/09/16 10:44:26;;;;;;;7.85;1.48;;;30.20;69.50;;;;;;6338794;22;20303;-76
2022/09/16 10:46:55;;;;;;;3.88;1.27;;;30.40;69.50;;;;;;6338211;22;20003;-76
2022/09/16 10:49:27;;;;;;;10.32;2.10;;;30.40;69.30;;;;;;6338266;22;20097;-77
2022/09/16 10:51:53;;;;;;;4.50;1.35;;;30.40;68.50;;;;;;6338686;22;20066;-77
2022/09/16 10:54:26;;;;;;;4.72;1.63;;;30.40;69.10;;;;;;6337155;22;20022;-76
2022/09/16 10:56:53;;;;;;;5.28;1.10;;;30.40;69.00;;;;;;6338359;22;20006;-77
2022/09/16 10:59:19;;;;;;;4.72;1.60;;;30.50;69.00;;;;;;6338527;22;20074;-77
2022/09/16 11:01:44;;;;;;;3.90;1.08;;;30.50;68.80;;;;;;6337097;22;20533;-76
2022/09/16 11:04:47;;;;;;;5.38;1.40;;;30.60;68.60;;;;;;6336734;22;20056;-77
2022/09/16 11:07:46;;;;;;;5.97;1.52;;;30.60;67.50;;;;;;6338054;22;20007;-82
2022/09/16 11:10:29;;;;;;;2.75;1.30;;;30.50;67.70;;;;;;6338258;22;20025;-81
2022/09/16 11:13:03;;;;;;;5.80;1.30;;;30.60;68.10;;;;;;6310270;22;20002;-81
2022/09/16 11:15:47;;;;;;;6.20;1.42;;;30.60;68.00;;;;;;6338524;22;20370;-79
2022/09/16 11:18:43;;;;;;;2.83;1.15;;;30.70;67.90;;;;;;6337413;22;20066;-80
2022/09/16 11:21:23;;;;;;;5.03;1.52;;;30.80;66.90;;;;;;6338074;22;19998;-80
2022/09/16 11:24:18;;;;;;;3.67;1.38;;;31.00;66.70;;;;;;6338413;22;20047;-79
2022/09/16 11:27:20;;;;;;;2.58;1.30;;;31.30;66.30;;;;;;6338113;22;20006;-79
2022/09/16 11:30:12;;;;;;;5.35;1.70;;;31.50;65.40;;;;;;6337385;22;19999;-80
2022/09/16 11:33:15;;;;;;;6.22;1.48;;;31.50;64.80;;;;;;6338309;22;20417;-80
2022/09/16 11:35:56;;;;;;;4.38;1.40;;;31.40;64.70;;;;;;6337560;22;20078;-80
2022/09/16 11:38:53;;;;;;;5.72;1.48;;;31.10;64.90;;;;;;6338091;22;20376;-76
2022/09/16 11:41:20;;;;;;;3.92;1.05;;;31.10;65.70;;;;;;6337547;22;20302;-76
2022/09/16 11:44:22;;;;;;;3.00;1.20;;;31.40;66.00;;;;;;6310524;22;20081;-80
2022/09/16 11:46:54;;;;;;;5.35;1.60;;;31.80;65.70;;;;;;6310303;22;20002;-81
2022/09/16 11:49:29;;;;;;;6.28;1.40;;;32.20;64.70;;;;;;6337926;22;20405;-81
2022/09/16 11:52:32;;;;;;;5.80;1.80;;;32.30;64.30;;;;;;6337861;22;20401;-81
2022/09/16 11:55:12;;;;;;;4.10;1.67;;;32.30;63.70;;;;;;6338282;22;19995;-81
2022/09/16 11:57:43;;;;;;;3.55;1.40;;;32.20;65.00;;;;;;6310710;22;20432;-81
2022/09/16 12:00:18;;;;;;;5.15;1.52;;;32.30;63.70;;;;;;6337730;22;19999;-80
2022/09/16 12:03:15;;;;;;;3.92;1.20;;;32.20;63.90;;;;;;6310229;22;20365;-81
2022/09/16 12:05:50;;;;;;;8.18;1.83;;;31.90;64.60;;;;;;6330449;22;20022;-80
2022/09/16 12:08:31;;;;;;;6.63;1.73;;;31.60;64.20;;;;;;6310527;22;20028;-80
2022/09/16 12:11:26;;;;;;;6.38;1.52;;;31.70;64.60;;;;;;6338518;22;20528;-77
2022/09/16 12:13:58;;;;;;;3.22;1.25;;;32.00;63.80;;;;;;6323716;22;19999;-77
2022/09/16 12:16:45;;;;;;;5.28;1.85;;;32.30;63.00;;;;;;6337476;22;20027;-82
2022/09/16 12:19:51;;;;;;;5.45;1.67;;;32.60;63.10;;;;;;6337598;22;20417;-80
2022/09/16 12:23:15;;;;;;;4.80;1.50;;;32.80;62.70;;;;;;6304282;22;20010;-80
2022/09/16 12:26:13;;;;;;;7.03;1.50;;;33.10;62.50;;;;;;6222708;22;20030;-82
2022/09/16 12:28:50;;;;;;;5.55;1.70;;;33.20;61.50;;;;;;6336828;22;20029;-81
2022/09/16 12:31:30;;;;;;;4.75;1.73;;;33.30;61.90;;;;;;6337410;22;20003;-80
2022/09/16 12:34:17;;;;;;;7.15;1.52;;;33.40;61.70;;;;;;6337399;22;19995;-80
2022/09/16 12:36:47;;;;;;;6.90;1.60;;;33.40;61.50;;;;;;6337936;22;20005;-79
2022/09/16 12:39:13;;;;;;;4.03;1.75;;;33.40;61.30;;;;;;6337107;22;20006;-80
2022/09/16 12:42:11;;;;;;;7.72;1.75;;;33.50;61.00;;;;;;6338989;22;20002;-80
2022/09/16 12:44:57;;;;;;;5.05;1.50;;;33.30;60.40;;;;;;6284316;22;20341;-80
2022/09/16 12:47:48;;;;;;;5.20;1.20;;;33.20;61.00;;;;;;6338764;22;20030;-79
2022/09/16 12:50:38;;;;;;;6.32;1.45;;;33.20;61.00;;;;;;6339169;22;20003;-81
2022/09/16 12:53:21;;;;;;;5.75;1.50;;;32.90;60.90;;;;;;6339432;22;19995;-81
2022/09/16 12:56:05;;;;;;;4.53;1.52;;;32.70;61.50;;;;;;6311550;22;20007;-80
2022/09/16 12:59:04;;;;;;;6.93;1.30;;;32.70;61.70;;;;;;6339181;22;20002;-81
2022/09/16 13:01:37;;;;;;;4.88;1.42;;;32.70;60.80;;;;;;6284890;22;20427;-77
2022/09/16 13:04:12;;;;;;;5.05;1.40;;;32.80;61.40;;;;;;6328645;22;20006;-76
2022/09/16 13:06:46;;;;;;;6.07;1.85;;;32.60;61.20;;;;;;6331147;22;20017;-80
2022/09/16 13:09:37;;;;;;;4.03;1.38;;;32.40;61.30;;;;;;6333298;22;19995;-81
2022/09/16 13:12:19;;;;;;;5.80;1.27;;;32.10;62.00;;;;;;6336432;22;20100;-80
2022/09/16 13:14:48;;;;;;;3.97;1.20;;;31.90;63.00;;;;;;6337055;22;20051;-77
2022/09/16 13:17:13;;;;;;;4.33;1.17;;;31.70;63.50;;;;;;6336975;22;20003;-76
2022/09/16 13:19:51;;;;;;;5.60;1.75;;;31.50;63.10;;;;;;6337126;22;20243;-76
2022/09/16 13:22:19;;;;;;;5.50;1.58;;;31.30;63.70;;;;;;6337371;22;20006;-76
2022/09/16 13:25:08;;;;;;;5.50;1.50;;;31.10;64.10;;;;;;6336830;22;20010;-77